createdAt,value
2017-11-06T00:00:39.844Z,5.37
2017-11-06T00:01:49.866Z,5.32
2017-11-06T00:02:59.913Z,5.33
2017-11-06T00:04:09.267Z,5.29
2017-11-06T00:05:19.285Z,5.32
2017-11-06T00:06:29.659Z,5.32
2017-11-06T00:07:39.693Z,5.35
2017-11-06T00:08:49.389Z,5.3
2017-11-06T00:09:59.419Z,5.33
2017-11-06T00:11:09.485Z,5.33
2017-11-06T00:12:19.505Z,5.37
2017-11-06T00:13:29.536Z,5.29
2017-11-06T00:14:39.890Z,5.23
2017-11-06T00:15:49.907Z,5.22
2017-11-06T00:16:59.600Z,5.23
2017-11-06T00:18:09.323Z,5.26
2017-11-06T00:19:19.349Z,5.23
2017-11-06T00:20:29.400Z,5.24
2017-11-06T00:21:38.738Z,5.2
2017-11-06T00:22:48.747Z,5.17
2017-11-06T00:23:59.133Z,5.24
2017-11-06T00:25:09.161Z,5.2
2017-11-06T00:26:19.226Z,5.14
2017-11-06T00:27:28.926Z,5.17
2017-11-06T00:28:38.602Z,5.11
2017-11-06T00:29:48.288Z,5.15
2017-11-06T00:30:57.977Z,5.12
2017-11-06T00:32:08.326Z,5.14
2017-11-06T00:33:18.345Z,5.23
2017-11-06T00:34:28.700Z,5.17
2017-11-06T00:35:39.046Z,5.12
2017-11-06T00:36:48.395Z,5.17
2017-11-06T00:37:58.079Z,5.15
2017-11-06T00:39:08.104Z,5.11
2017-11-06T00:40:18.120Z,5.19
2017-11-06T00:41:28.140Z,5.14
2017-11-06T00:42:38.509Z,5.19
2017-11-06T00:43:48.183Z,5.19
2017-11-06T00:44:57.859Z,5.05
2017-11-06T00:46:07.890Z,5.11
2017-11-06T00:47:17.570Z,5.15
2017-11-06T00:48:26.912Z,5.14
2017-11-06T00:49:36.598Z,5.11
2017-11-06T00:50:46.281Z,5.04
2017-11-06T00:51:56.646Z,5.04
2017-11-06T00:53:06.665Z,5.11
2017-11-06T00:54:16.696Z,5.06
2017-11-06T00:55:26.706Z,5.11
2017-11-06T00:56:36.391Z,5.06
2017-11-06T00:57:46.771Z,5.12
2017-11-06T00:58:56.465Z,5.05
2017-11-06T01:00:06.469Z,5.01
2017-11-06T01:01:16.476Z,5.02
2017-11-06T01:02:25.827Z,5.02
2017-11-06T01:03:35.562Z,5.04
2017-11-06T01:04:45.251Z,5.02
2017-11-06T01:05:55.664Z,4.99
2017-11-06T01:07:05.349Z,4.97
2017-11-06T01:08:15.392Z,4.99
2017-11-06T01:09:25.436Z,4.93
2017-11-06T01:10:34.787Z,5.01
2017-11-06T01:11:44.479Z,5.01
2017-11-06T01:12:54.494Z,4.97
2017-11-06T01:14:04.511Z,4.93
2017-11-06T01:15:14.524Z,4.97
2017-11-06T01:16:24.878Z,4.9
2017-11-06T01:17:34.903Z,4.97
2017-11-06T01:18:44.626Z,4.93
2017-11-06T01:19:54.357Z,4.94
2017-11-06T01:21:04.037Z,4.93
2017-11-06T01:22:14.397Z,4.94
2017-11-06T01:23:23.772Z,4.9
2017-11-06T01:24:33.822Z,4.86
2017-11-06T01:25:43.869Z,4.88
2017-11-06T01:26:53.891Z,4.93
2017-11-06T01:28:03.582Z,4.97
2017-11-06T01:29:13.991Z,4.94
2017-11-06T01:30:24.042Z,4.96
2017-11-06T01:31:34.090Z,4.97
2017-11-06T01:32:44.114Z,4.97
2017-11-06T01:33:53.795Z,4.93
2017-11-06T01:35:04.196Z,4.93
2017-11-06T01:36:14.233Z,4.86
2017-11-06T01:37:23.912Z,4.87
2017-11-06T01:38:33.598Z,4.83
2017-11-06T01:39:43.990Z,4.84
2017-11-06T01:40:53.684Z,4.75
2017-11-06T01:42:04.061Z,4.72
2017-11-06T01:43:14.076Z,4.84
2017-11-06T01:44:24.459Z,4.75
2017-11-06T01:45:33.824Z,4.83
2017-11-06T01:46:43.533Z,4.79
2017-11-06T01:47:53.924Z,4.72
2017-11-06T01:49:04.013Z,4.87
2017-11-06T01:50:13.377Z,4.8
2017-11-06T01:51:23.425Z,4.77
2017-11-06T01:52:33.111Z,4.69
2017-11-06T01:53:42.792Z,4.8
2017-11-06T01:54:52.818Z,4.77
2017-11-06T01:56:02.525Z,4.72
2017-11-06T01:57:11.537Z,4.77
2017-11-06T01:58:20.877Z,4.74
2017-11-06T01:59:30.559Z,4.79
2017-11-06T02:00:40.902Z,4.75
2017-11-06T02:01:50.932Z,4.8
2017-11-06T02:03:00.601Z,4.68
2017-11-06T02:04:10.286Z,4.64
2017-11-06T02:05:19.959Z,4.64
2017-11-06T02:06:29.311Z,4.69
2017-11-06T02:07:39.000Z,4.62
2017-11-06T02:08:48.685Z,4.67
2017-11-06T02:09:58.038Z,4.65
2017-11-06T02:11:08.061Z,4.69
2017-11-06T02:12:17.751Z,4.65
2017-11-06T02:13:27.769Z,4.65
2017-11-06T02:14:37.467Z,4.68
2017-11-06T02:15:47.485Z,4.65
2017-11-06T02:16:57.497Z,4.67
2017-11-06T02:18:07.171Z,4.65
2017-11-06T02:19:16.855Z,4.65
2017-11-06T02:20:26.192Z,4.64
2017-11-06T02:21:35.866Z,4.71
2017-11-06T02:22:45.552Z,4.67
2017-11-06T02:23:55.915Z,4.71
2017-11-06T02:25:05.930Z,4.8
2017-11-06T02:26:15.955Z,4.71
2017-11-06T02:27:26.327Z,4.72
2017-11-06T02:28:36.360Z,4.69
2017-11-06T02:29:46.371Z,4.79
2017-11-06T02:30:55.713Z,4.71
2017-11-06T02:32:05.063Z,4.8
2017-11-06T02:33:14.784Z,4.8
2017-11-06T02:34:24.137Z,4.83
2017-11-06T02:35:33.820Z,4.72
2017-11-06T02:36:43.836Z,4.79
2017-11-06T02:37:53.857Z,4.74
2017-11-06T02:40:00.285Z,4.83
2017-11-06T02:41:09.965Z,4.88
2017-11-06T02:42:20.321Z,4.87
2017-11-06T02:43:29.653Z,4.97
2017-11-06T02:44:39.662Z,4.96
2017-11-06T02:45:49.667Z,4.86
2017-11-06T02:46:59.685Z,4.8
2017-11-06T02:48:09.353Z,4.96
2017-11-06T02:49:19.358Z,4.87
2017-11-06T02:50:29.695Z,4.84
2017-11-06T02:51:38.697Z,4.86
2017-11-06T02:52:48.363Z,4.8
2017-11-06T02:53:57.816Z,4.9
2017-11-06T02:55:08.324Z,4.86
2017-11-06T02:56:18.421Z,4.8
2017-11-06T02:57:28.768Z,4.88
2017-11-06T02:58:38.776Z,4.83
2017-11-06T02:59:49.126Z,4.88
2017-11-06T03:00:59.133Z,4.79
2017-11-06T03:02:09.486Z,4.8
2017-11-06T03:03:19.497Z,4.84
2017-11-06T03:04:29.190Z,4.8
2017-11-06T03:05:39.201Z,4.77
2017-11-06T03:06:49.566Z,4.8
2017-11-06T03:07:59.233Z,4.79
2017-11-06T03:09:08.895Z,4.71
2017-11-06T03:10:18.929Z,4.74
2017-11-06T03:11:28.946Z,4.77
2017-11-06T03:12:38.619Z,4.74
2017-11-06T03:13:47.968Z,4.69
2017-11-06T03:14:57.307Z,4.71
2017-11-06T03:16:07.005Z,4.65
2017-11-06T03:17:17.345Z,4.68
2017-11-06T03:18:27.020Z,4.71
2017-11-06T03:19:37.027Z,4.75
2017-11-06T03:20:47.357Z,4.72
2017-11-06T03:21:57.375Z,4.77
2017-11-06T03:23:07.070Z,4.77
2017-11-06T03:24:16.072Z,4.71
2017-11-06T03:25:26.417Z,4.71
2017-11-06T03:26:36.428Z,4.77
2017-11-06T03:27:46.430Z,4.77
2017-11-06T03:28:56.442Z,4.68
2017-11-06T03:30:06.110Z,4.69
2017-11-06T03:31:16.152Z,4.65
2017-11-06T03:32:26.200Z,4.61
2017-11-06T03:33:35.869Z,4.68
2017-11-06T03:34:45.534Z,4.72
2017-11-06T03:35:55.552Z,4.68
2017-11-06T03:37:05.552Z,4.65
2017-11-06T03:38:14.882Z,4.69
2017-11-06T03:39:24.903Z,4.64
2017-11-06T03:40:35.245Z,4.67
2017-11-06T03:41:45.249Z,4.71
2017-11-06T03:42:55.590Z,4.62
2017-11-06T03:44:05.313Z,4.65
2017-11-06T03:45:15.316Z,4.71
2017-11-06T03:46:24.658Z,4.67
2017-11-06T03:47:34.005Z,4.72
2017-11-06T03:48:43.684Z,4.67
2017-11-06T03:49:53.374Z,4.65
2017-11-06T03:51:02.705Z,4.64
2017-11-06T03:52:12.719Z,4.71
2017-11-06T03:53:22.724Z,4.72
2017-11-06T03:54:33.074Z,4.72
2017-11-06T03:55:42.737Z,4.65
2017-11-06T03:56:51.745Z,4.67
2017-11-06T03:58:02.083Z,4.72
2017-11-06T03:59:12.086Z,4.68
2017-11-06T04:00:22.426Z,4.67
2017-11-06T04:01:31.762Z,4.68
2017-11-06T04:02:42.114Z,4.67
2017-11-06T04:03:52.448Z,4.68
2017-11-06T04:05:02.122Z,4.68
2017-11-06T04:06:12.127Z,4.67
2017-11-06T04:07:22.127Z,4.65
2017-11-06T04:08:32.134Z,4.62
2017-11-06T04:09:41.801Z,4.68
2017-11-06T04:10:51.480Z,4.69
2017-11-06T04:12:01.490Z,4.62
2017-11-06T04:13:11.828Z,4.59
2017-11-06T04:14:21.163Z,4.67
2017-11-06T04:15:30.495Z,4.65
2017-11-06T04:16:40.496Z,4.67
2017-11-06T04:17:50.496Z,4.67
2017-11-06T04:18:59.830Z,4.69
2017-11-06T04:20:10.173Z,4.68
2017-11-06T04:21:20.513Z,4.67
2017-11-06T04:22:30.670Z,4.64
2017-11-06T04:23:40.012Z,4.69
2017-11-06T04:24:49.353Z,4.68
2017-11-06T04:25:59.700Z,4.71
2017-11-06T04:27:09.031Z,4.75
2017-11-06T04:28:19.051Z,4.9
2017-11-06T04:29:29.056Z,4.83
2017-11-06T04:30:39.398Z,4.96
2017-11-06T04:31:48.736Z,4.9
2017-11-06T04:32:58.735Z,4.94
2017-11-06T04:34:08.750Z,4.97
2017-11-06T04:35:18.762Z,4.9
2017-11-06T04:36:28.433Z,4.96
2017-11-06T04:37:38.449Z,4.94
2017-11-06T04:38:48.453Z,4.91
2017-11-06T04:39:58.794Z,4.96
2017-11-06T04:41:08.130Z,4.96
2017-11-06T04:42:17.485Z,4.99
2017-11-06T04:43:26.819Z,4.97
2017-11-06T04:44:36.486Z,4.87
2017-11-06T04:45:46.502Z,4.93
2017-11-06T04:46:55.834Z,4.96
2017-11-06T04:48:05.499Z,5.01
2017-11-06T04:49:15.177Z,4.93
2017-11-06T04:50:25.522Z,5.01
2017-11-06T04:51:34.865Z,4.99
2017-11-06T04:52:44.527Z,5.01
2017-11-06T04:53:54.531Z,5.01
2017-11-06T04:55:03.874Z,5.01
2017-11-06T04:56:12.877Z,4.97
2017-11-06T04:57:23.216Z,5.02
2017-11-06T04:58:33.224Z,5.05
2017-11-06T04:59:43.232Z,5.04
2017-11-06T05:00:52.897Z,4.96
2017-11-06T05:02:02.901Z,4.94
2017-11-06T05:03:12.582Z,4.96
2017-11-06T05:04:22.249Z,5.02
2017-11-06T05:05:32.258Z,5.01
2017-11-06T05:06:41.594Z,5.05
2017-11-06T05:07:51.258Z,5.01
2017-11-06T05:09:01.266Z,5.09
2017-11-06T05:10:10.606Z,5.08
2017-11-06T05:11:20.644Z,5.05
2017-11-06T05:12:30.310Z,5.11
2017-11-06T05:13:40.658Z,5.14
2017-11-06T05:14:50.997Z,5.23
2017-11-06T05:16:00.341Z,5.22
2017-11-06T05:17:10.019Z,5.22
2017-11-06T05:18:19.698Z,5.3
2017-11-06T05:19:29.035Z,5.32
2017-11-06T05:20:39.031Z,5.35
2017-11-06T05:21:49.035Z,5.33
2017-11-06T05:22:59.044Z,5.45
2017-11-06T05:24:09.057Z,5.33
2017-11-06T05:25:19.071Z,5.35
2017-11-06T05:26:29.072Z,5.35
2017-11-06T05:27:39.421Z,5.37
2017-11-06T05:28:49.147Z,5.3
2017-11-06T05:29:59.153Z,5.23
2017-11-06T05:31:08.828Z,5.32
2017-11-06T05:32:18.495Z,5.26
2017-11-06T05:33:28.504Z,5.29
2017-11-06T05:34:38.178Z,5.33
2017-11-06T05:35:48.189Z,5.22
2017-11-06T05:36:58.200Z,5.26
2017-11-06T05:38:07.882Z,5.32
2017-11-06T05:39:17.887Z,5.33
2017-11-06T05:40:28.239Z,5.29
2017-11-06T05:41:38.586Z,5.37
2017-11-06T05:42:48.940Z,5.32
2017-11-06T05:43:58.273Z,5.44
2017-11-06T05:45:08.283Z,5.38
2017-11-06T05:46:17.947Z,5.35
2017-11-06T05:47:28.289Z,5.32
2017-11-06T05:48:38.310Z,5.35
2017-11-06T05:49:48.314Z,5.35
2017-11-06T05:50:57.985Z,5.38
2017-11-06T05:52:07.319Z,5.41
2017-11-06T05:53:16.986Z,5.44
2017-11-06T05:54:26.318Z,5.49
2017-11-06T05:55:35.649Z,5.44
2017-11-06T05:56:44.986Z,5.45
2017-11-06T05:57:54.656Z,5.4
2017-11-06T05:59:04.329Z,5.48
2017-11-06T06:00:14.362Z,5.55
2017-11-06T06:01:24.125Z,5.55
2017-11-06T06:02:34.126Z,5.48
2017-11-06T06:03:43.803Z,5.49
2017-11-06T06:04:53.802Z,5.47
2017-11-06T06:06:03.482Z,5.55
2017-11-06T06:07:13.169Z,5.59
2017-11-06T06:08:23.176Z,5.55
2017-11-06T06:09:33.192Z,5.55
2017-11-06T06:10:42.533Z,5.58
2017-11-06T06:11:52.231Z,5.62
2017-11-06T06:13:01.898Z,5.66
2017-11-06T06:14:11.903Z,5.65
2017-11-06T06:15:21.915Z,5.66
2017-11-06T06:16:31.921Z,5.58
2017-11-06T06:17:41.598Z,5.63
2017-11-06T06:18:51.975Z,5.65
2017-11-06T06:20:01.976Z,5.75
2017-11-06T06:21:11.658Z,5.74
2017-11-06T06:22:20.997Z,5.7
2017-11-06T06:23:31.000Z,5.73
2017-11-06T06:24:41.130Z,5.81
2017-11-06T06:25:50.803Z,5.74
2017-11-06T06:27:00.478Z,5.92
2017-11-06T06:28:10.160Z,5.83
2017-11-06T06:29:19.882Z,5.8
2017-11-06T06:30:29.551Z,5.78
2017-11-06T06:31:39.559Z,5.81
2017-11-06T06:32:49.231Z,5.77
2017-11-06T06:33:58.904Z,5.8
2017-11-06T06:35:09.242Z,5.87
2017-11-06T06:36:19.618Z,5.88
2017-11-06T06:37:28.930Z,5.88
2017-11-06T06:38:38.602Z,5.93
2017-11-06T06:39:48.942Z,6.01
2017-11-06T06:40:58.950Z,5.92
2017-11-06T06:42:08.625Z,6.01
2017-11-06T06:43:18.627Z,6.05
2017-11-06T06:44:28.684Z,6.06
2017-11-06T06:45:38.358Z,6.16
2017-11-06T06:46:48.360Z,6.17
2017-11-06T06:47:58.026Z,6.24
2017-11-06T06:49:07.709Z,6.17
2017-11-06T06:50:17.717Z,6.2
2017-11-06T06:51:27.387Z,6.25
2017-11-06T06:52:37.058Z,6.19
2017-11-06T06:53:46.727Z,6.16
2017-11-06T06:54:56.737Z,6.28
2017-11-06T06:56:06.410Z,6.28
2017-11-06T06:57:16.091Z,6.36
2017-11-06T06:58:25.431Z,6.32
2017-11-06T06:59:35.112Z,6.33
2017-11-06T07:00:45.117Z,6.43
2017-11-06T07:01:54.451Z,6.42
2017-11-06T07:03:04.933Z,6.43
2017-11-06T07:04:14.507Z,6.48
2017-11-06T07:05:24.290Z,6.53
2017-11-06T07:06:33.291Z,6.5
2017-11-06T07:07:42.626Z,6.5
2017-11-06T07:08:52.299Z,6.45
2017-11-06T07:10:01.980Z,6.51
2017-11-06T07:11:11.996Z,6.5
2017-11-06T07:12:21.785Z,6.43
2017-11-06T07:13:31.102Z,6.6
2017-11-06T07:14:40.101Z,6.45
2017-11-06T07:15:50.108Z,6.48
2017-11-06T07:16:59.776Z,6.46
2017-11-06T07:18:09.121Z,6.43
2017-11-06T07:19:18.457Z,6.54
2017-11-06T07:20:27.794Z,6.6
2017-11-06T07:21:37.464Z,6.68
2017-11-06T07:22:47.469Z,6.73
2017-11-06T07:23:57.486Z,6.76
2017-11-06T07:25:07.163Z,6.82
2017-11-06T07:26:17.171Z,6.78
2017-11-06T07:27:27.176Z,6.86
2017-11-06T07:28:36.924Z,6.86
2017-11-06T07:29:46.955Z,6.89
2017-11-06T07:30:57.298Z,6.82
2017-11-06T07:32:06.982Z,6.78
2017-11-06T07:33:17.011Z,6.87
2017-11-06T07:34:27.376Z,6.91
2017-11-06T07:35:37.053Z,6.93
2017-11-06T07:36:46.447Z,6.87
2017-11-06T07:37:56.115Z,7
2017-11-06T07:39:05.121Z,7.09
2017-11-06T07:40:14.791Z,7.04
2017-11-06T07:41:25.158Z,7.14
2017-11-06T07:42:34.636Z,7.16
2017-11-06T07:43:45.136Z,7.26
2017-11-06T07:44:55.146Z,7.26
2017-11-06T07:46:05.088Z,7.26
2017-11-06T07:47:15.514Z,7.27
2017-11-06T07:48:24.863Z,7.39
2017-11-06T07:49:35.503Z,7.41
2017-11-06T07:50:46.017Z,7.41
2017-11-06T07:51:56.698Z,7.39
2017-11-06T07:53:07.315Z,7.36
2017-11-06T07:54:18.079Z,7.37
2017-11-06T07:55:27.892Z,7.45
2017-11-06T07:56:38.724Z,7.39
2017-11-06T07:57:48.409Z,7.37
2017-11-06T07:58:58.097Z,7.42
2017-11-06T08:00:07.444Z,7.5
2017-11-06T08:01:17.496Z,7.45
2017-11-06T08:02:26.509Z,7.48
2017-11-06T08:03:36.605Z,7.51
2017-11-06T08:04:46.247Z,7.54
2017-11-06T08:05:55.916Z,7.51
2017-11-06T08:07:05.955Z,7.58
2017-11-06T08:08:16.136Z,7.54
2017-11-06T08:09:26.307Z,7.57
2017-11-06T08:10:36.758Z,7.66
2017-11-06T08:11:46.444Z,7.63
2017-11-06T08:12:56.502Z,7.58
2017-11-06T08:14:05.863Z,7.77
2017-11-06T08:15:15.894Z,7.76
2017-11-06T08:16:25.604Z,7.88
2017-11-06T08:17:35.642Z,7.94
2017-11-06T08:18:45.652Z,7.86
2017-11-06T08:19:55.322Z,7.74
2017-11-06T08:21:05.001Z,7.76
2017-11-06T08:22:14.001Z,7.81
2017-11-06T08:23:24.345Z,7.85
2017-11-06T08:24:34.049Z,7.88
2017-11-06T08:25:43.364Z,7.84
2017-11-06T08:26:53.717Z,7.99
2017-11-06T08:28:02.732Z,7.86
2017-11-06T08:29:12.405Z,7.95
2017-11-06T08:30:22.110Z,8.03
2017-11-06T08:31:31.772Z,8.04
2017-11-06T08:32:42.116Z,8.12
2017-11-06T08:33:52.138Z,8.22
2017-11-06T08:35:02.488Z,8.22
2017-11-06T08:36:12.513Z,8.25
2017-11-06T08:37:22.228Z,8.24
2017-11-06T08:38:31.930Z,8.37
2017-11-06T08:39:41.943Z,8.29
2017-11-06T08:40:52.323Z,8.34
2017-11-06T08:42:02.104Z,8.42
2017-11-06T08:43:12.125Z,8.47
2017-11-06T08:44:22.156Z,8.52
2017-11-06T08:45:32.163Z,8.58
2017-11-06T08:46:42.203Z,8.55
2017-11-06T08:47:52.231Z,8.63
2017-11-06T08:49:02.569Z,8.64
2017-11-06T08:50:12.921Z,8.63
2017-11-06T08:51:22.606Z,8.58
2017-11-06T08:52:32.615Z,8.65
2017-11-06T08:53:42.628Z,8.6
2017-11-06T08:54:52.641Z,8.6
2017-11-06T08:56:02.323Z,8.54
2017-11-06T08:57:12.338Z,8.58
2017-11-06T08:58:22.017Z,8.65
2017-11-06T08:59:31.357Z,8.68
2017-11-06T09:00:41.055Z,8.71
2017-11-06T09:01:50.732Z,8.64
2017-11-06T09:03:00.092Z,8.83
2017-11-06T09:04:09.761Z,8.83
2017-11-06T09:05:18.768Z,8.86
2017-11-06T09:06:28.188Z,8.96
2017-11-06T09:07:37.541Z,8.94
2017-11-06T09:08:47.549Z,8.96
2017-11-06T09:09:57.579Z,8.85
2017-11-06T09:11:07.603Z,8.78
2017-11-06T09:12:16.944Z,8.79
2017-11-06T09:13:26.630Z,8.88
2017-11-06T09:14:36.298Z,8.79
2017-11-06T09:15:45.978Z,8.88
2017-11-06T09:16:56.328Z,8.91
2017-11-06T09:18:06.357Z,8.89
2017-11-06T09:19:16.390Z,8.86
2017-11-06T09:20:26.062Z,8.93
2017-11-06T09:21:35.428Z,9.04
2017-11-06T09:22:44.927Z,9.04
2017-11-06T09:23:54.516Z,9.12
2017-11-06T09:25:05.052Z,9.15
2017-11-06T09:26:15.656Z,9.19
2017-11-06T09:27:26.286Z,9.24
2017-11-06T09:28:36.798Z,9.32
2017-11-06T09:29:46.672Z,9.32
2017-11-06T09:30:56.564Z,9.32
2017-11-06T09:32:06.006Z,9.37
2017-11-06T09:33:16.027Z,9.34
2017-11-06T09:34:26.146Z,9.42
2017-11-06T09:35:36.661Z,9.45
2017-11-06T09:36:46.421Z,9.31
2017-11-06T09:37:55.788Z,9.38
2017-11-06T09:39:05.469Z,9.37
2017-11-06T09:40:15.482Z,9.27
2017-11-06T09:41:24.838Z,9.35
2017-11-06T09:42:34.545Z,9.3
2017-11-06T09:43:44.560Z,9.32
2017-11-06T09:44:54.574Z,9.24
2017-11-06T09:46:04.927Z,9.23
2017-11-06T09:47:14.329Z,9.12
2017-11-06T09:48:23.334Z,8.97
2017-11-06T09:49:33.363Z,9.01
2017-11-06T09:50:43.717Z,8.82
2017-11-06T09:51:53.390Z,8.78
2017-11-06T09:53:02.731Z,8.8
2017-11-06T09:54:12.740Z,8.65
2017-11-06T09:55:22.079Z,8.65
2017-11-06T09:56:32.086Z,8.67
2017-11-06T09:57:41.423Z,8.65
2017-11-06T09:58:51.098Z,8.61
2017-11-06T10:00:01.105Z,8.71
2017-11-06T10:01:11.119Z,8.82
2017-11-06T10:02:20.836Z,8.91
2017-11-06T10:03:29.838Z,8.89
2017-11-06T10:04:39.238Z,9
2017-11-06T10:05:48.947Z,9.08
2017-11-06T10:06:58.655Z,9.06
2017-11-06T10:08:08.299Z,9.12
2017-11-06T10:09:17.720Z,9.17
2017-11-06T10:10:26.862Z,9.17
2017-11-06T10:11:36.988Z,9.24
2017-11-06T10:12:47.043Z,9.31
2017-11-06T10:13:57.421Z,9.31
2017-11-06T10:15:07.108Z,9.38
2017-11-06T10:16:16.775Z,9.52
2017-11-06T10:17:25.781Z,9.81
2017-11-06T10:18:35.453Z,9.96
2017-11-06T10:19:44.800Z,9.98
2017-11-06T10:20:54.475Z,10.02
2017-11-06T10:22:04.494Z,10.06
2017-11-06T10:23:14.297Z,10.09
2017-11-06T10:24:23.740Z,10.09
2017-11-06T10:25:32.805Z,9.98
2017-11-06T10:26:42.492Z,9.93
2017-11-06T10:27:52.527Z,9.92
2017-11-06T10:29:02.981Z,10.02
2017-11-06T10:30:13.148Z,10.02
2017-11-06T10:31:22.871Z,10.16
2017-11-06T10:32:32.565Z,10.26
2017-11-06T10:33:41.921Z,10.29
2017-11-06T10:34:51.953Z,10.26
2017-11-06T10:36:01.656Z,10.35
2017-11-06T10:37:11.329Z,10.46
2017-11-06T10:38:21.372Z,10.38
2017-11-06T10:39:30.757Z,10.24
2017-11-06T10:40:40.435Z,10.32
2017-11-06T10:41:50.114Z,10.18
2017-11-06T10:43:00.472Z,10.18
2017-11-06T10:44:09.812Z,10.06
2017-11-06T10:45:20.151Z,10.16
2017-11-06T10:46:29.939Z,10.06
2017-11-06T10:47:39.336Z,10.2
2017-11-06T10:48:49.020Z,10.36
2017-11-06T10:49:59.374Z,10.34
2017-11-06T10:51:09.408Z,10.52
2017-11-06T10:52:18.781Z,10.75
2017-11-06T10:53:28.157Z,10.63
2017-11-06T10:54:37.831Z,10.76
2017-11-06T10:55:47.507Z,10.66
2017-11-06T10:56:57.182Z,10.62
2017-11-06T10:58:06.869Z,10.63
2017-11-06T10:59:17.221Z,10.58
2017-11-06T11:00:26.569Z,10.65
2017-11-06T11:01:36.681Z,10.7
2017-11-06T11:02:46.445Z,10.75
2017-11-06T11:03:56.126Z,10.47
2017-11-06T11:05:06.478Z,10.47
2017-11-06T11:06:16.163Z,10.62
2017-11-06T11:07:26.274Z,10.51
2017-11-06T11:08:36.379Z,10.68
2017-11-06T11:09:46.447Z,10.8
2017-11-06T11:10:55.901Z,10.91
2017-11-06T11:12:06.390Z,11.17
2017-11-06T11:13:16.156Z,11.28
2017-11-06T11:14:25.831Z,11.3
2017-11-06T11:15:35.845Z,11.36
2017-11-06T11:16:46.196Z,11.45
2017-11-06T11:17:56.253Z,11.41
2017-11-06T11:19:06.409Z,11.46
2017-11-06T11:20:16.220Z,11.39
2017-11-06T11:21:26.715Z,11.27
2017-11-06T11:22:36.866Z,11.35
2017-11-06T11:23:46.958Z,11.38
2017-11-06T11:24:57.047Z,11.21
2017-11-06T11:26:06.753Z,11.28
2017-11-06T11:27:16.486Z,11.48
2017-11-06T11:28:26.232Z,11.51
2017-11-06T11:29:35.245Z,11.6
2017-11-06T11:30:44.618Z,11.84
2017-11-06T11:31:54.773Z,11.82
2017-11-06T11:33:04.916Z,11.85
2017-11-06T11:34:15.322Z,11.88
2017-11-06T11:35:25.379Z,11.84
2017-11-06T11:36:35.539Z,11.93
2017-11-06T11:37:46.086Z,11.84
2017-11-06T11:38:56.219Z,11.78
2017-11-06T11:40:06.407Z,11.82
2017-11-06T11:41:16.614Z,11.88
2017-11-06T11:42:26.012Z,11.85
2017-11-06T11:43:36.021Z,11.94
2017-11-06T11:44:45.745Z,11.84
2017-11-06T11:45:55.607Z,12
2017-11-06T11:47:06.031Z,12.05
2017-11-06T11:48:16.039Z,12.04
2017-11-06T11:49:26.068Z,12.07
2017-11-06T11:50:36.091Z,12.04
2017-11-06T11:51:45.624Z,12.03
2017-11-06T11:52:55.198Z,12.08
2017-11-06T11:54:05.352Z,11.96
2017-11-06T11:55:15.539Z,12
2017-11-06T11:56:24.967Z,12.16
2017-11-06T11:57:35.096Z,12.23
2017-11-06T11:58:45.256Z,12.46
2017-11-06T11:59:54.713Z,12.69
2017-11-06T12:01:04.512Z,12.84
2017-11-06T12:02:15.016Z,13.12
2017-11-06T12:03:24.800Z,13.21
2017-11-06T12:04:35.320Z,13.29
2017-11-06T12:05:45.843Z,13.41
2017-11-06T12:06:55.271Z,13.39
2017-11-06T12:08:05.281Z,13.51
2017-11-06T12:09:14.972Z,13.47
2017-11-06T12:10:24.671Z,13.35
2017-11-06T12:11:34.348Z,13.29
2017-11-06T12:12:44.713Z,13.25
2017-11-06T12:13:54.151Z,13.43
2017-11-06T12:15:04.303Z,13.48
2017-11-06T12:16:14.419Z,13.53
2017-11-06T12:17:24.766Z,13.59
2017-11-06T12:18:35.112Z,13.73
2017-11-06T12:19:45.155Z,13.8
2017-11-06T12:20:55.172Z,13.79
2017-11-06T12:22:05.188Z,13.84
2017-11-06T12:23:14.750Z,13.62
2017-11-06T12:24:25.244Z,13.59
2017-11-06T12:25:34.994Z,13.36
2017-11-06T12:26:44.461Z,13.36
2017-11-06T12:27:54.841Z,13.13
2017-11-06T12:29:04.185Z,13.03
2017-11-06T12:30:13.197Z,12.94
2017-11-06T12:31:22.887Z,12.76
2017-11-06T12:32:32.912Z,12.61
2017-11-06T12:33:43.332Z,12.58
2017-11-06T12:34:53.119Z,12.4
2017-11-06T12:36:02.679Z,12.29
2017-11-06T12:37:12.606Z,12.21
2017-11-06T12:38:22.505Z,12.18
2017-11-06T12:39:32.428Z,12.18
2017-11-06T12:40:42.294Z,12.18
2017-11-06T12:41:51.743Z,12.12
2017-11-06T12:43:01.797Z,12.13
2017-11-06T12:44:11.910Z,12.21
2017-11-06T12:45:21.016Z,12.18
2017-11-06T12:46:30.537Z,12.29
2017-11-06T12:47:40.999Z,12.58
2017-11-06T12:48:51.135Z,12.62
2017-11-06T12:50:01.319Z,12.62
2017-11-06T12:51:11.519Z,12.71
2017-11-06T12:52:21.344Z,12.87
2017-11-06T12:53:30.438Z,12.99
2017-11-06T12:54:40.119Z,13.13
2017-11-06T12:55:50.485Z,13.27
2017-11-06T12:57:00.178Z,13.35
2017-11-06T12:58:09.953Z,13.27
2017-11-06T12:59:20.124Z,13.27
2017-11-06T13:00:29.645Z,13.24
2017-11-06T13:01:39.517Z,13.32
2017-11-06T13:02:49.385Z,13.29
2017-11-06T13:03:59.249Z,13.29
2017-11-06T13:05:09.102Z,13.44
2017-11-06T13:06:18.257Z,13.54
2017-11-06T13:07:28.767Z,13.62
2017-11-06T13:08:38.324Z,13.69
2017-11-06T13:09:48.481Z,13.79
2017-11-06T13:10:58.345Z,13.93
2017-11-06T13:12:08.466Z,13.96
2017-11-06T13:13:18.302Z,13.93
2017-11-06T13:14:28.853Z,13.88
2017-11-06T13:15:38.699Z,14.06
2017-11-06T13:16:48.242Z,14.23
2017-11-06T13:17:58.012Z,14.17
2017-11-06T13:19:08.071Z,14.23
2017-11-06T13:20:18.563Z,14.21
2017-11-06T13:21:28.769Z,14.19
2017-11-06T13:22:38.272Z,14.21
2017-11-06T13:23:48.021Z,14.09
2017-11-06T13:24:57.364Z,13.93
2017-11-06T13:26:07.540Z,13.79
2017-11-06T13:27:17.702Z,13.83
2017-11-06T13:28:28.260Z,14.06
2017-11-06T13:29:38.076Z,14.06
2017-11-06T13:30:47.259Z,14.2
2017-11-06T13:31:57.770Z,14.24
2017-11-06T13:33:07.862Z,14.42
2017-11-06T13:34:18.109Z,14.53
2017-11-06T13:35:28.656Z,14.71
2017-11-06T13:36:38.464Z,14.82
2017-11-06T13:37:48.285Z,14.71
2017-11-06T13:38:58.897Z,14.72
2017-11-06T13:40:09.116Z,14.83
2017-11-06T13:41:19.337Z,14.86
2017-11-06T13:42:29.854Z,14.95
2017-11-06T13:43:40.062Z,15.13
2017-11-06T13:44:50.214Z,15.15
2017-11-06T13:46:00.408Z,15.27
2017-11-06T13:47:10.289Z,15.31
2017-11-06T13:48:19.768Z,15.4
2017-11-06T13:49:30.263Z,15.35
2017-11-06T13:50:40.286Z,15.35
2017-11-06T13:51:49.331Z,15.6
2017-11-06T13:52:58.684Z,15.78
2017-11-06T13:54:08.021Z,15.92
2017-11-06T13:55:18.038Z,16.16
2017-11-06T13:56:27.771Z,16.37
2017-11-06T13:57:37.782Z,16.55
2017-11-06T13:58:47.460Z,16.82
2017-11-06T13:59:57.525Z,17.15
2017-11-06T14:01:07.226Z,17.36
2017-11-06T14:02:17.581Z,17.51
2017-11-06T14:03:27.821Z,17.74
2017-11-06T14:04:38.289Z,17.92
2017-11-06T14:05:47.819Z,17.96
2017-11-06T14:06:57.645Z,17.99
2017-11-06T14:08:06.991Z,17.87
2017-11-06T14:09:16.678Z,17.94
2017-11-06T14:10:27.028Z,17.7
2017-11-06T14:11:36.885Z,17.74
2017-11-06T14:12:46.398Z,17.73
2017-11-06T14:13:56.259Z,17.76
2017-11-06T14:15:06.920Z,17.66
2017-11-06T14:16:17.201Z,17.6
2017-11-06T14:17:27.067Z,17.58
2017-11-06T14:18:37.379Z,17.46
2017-11-06T14:19:47.337Z,17.28
2017-11-06T14:20:57.308Z,17.21
2017-11-06T14:22:07.676Z,17.17
2017-11-06T14:23:17.813Z,17.21
2017-11-06T14:24:27.733Z,17.27
2017-11-06T14:25:37.489Z,17.32
2017-11-06T14:26:47.914Z,17.35
2017-11-06T14:27:58.256Z,17.25
2017-11-06T14:29:08.292Z,17.45
2017-11-06T14:30:18.360Z,17.42
2017-11-06T14:31:27.700Z,17.49
2017-11-06T14:32:37.717Z,17.6
2017-11-06T14:33:47.762Z,17.54
2017-11-06T14:34:57.773Z,17.68
2017-11-06T14:36:07.800Z,17.77
2017-11-06T14:37:17.162Z,17.84
2017-11-06T14:38:26.856Z,17.84
2017-11-06T14:39:36.544Z,17.96
2017-11-06T14:40:46.224Z,17.62
2017-11-06T14:41:56.592Z,17.32
2017-11-06T14:43:06.960Z,17.2
2017-11-06T14:44:16.347Z,17
2017-11-06T14:45:26.362Z,16.82
2017-11-06T14:46:36.050Z,16.69
2017-11-06T14:47:46.096Z,16.33
2017-11-06T14:48:55.451Z,15.8
2017-11-06T14:50:04.821Z,15.6
2017-11-06T14:51:14.833Z,15.04
2017-11-06T14:52:24.174Z,14.86
2017-11-06T14:53:34.190Z,14.69
2017-11-06T14:54:44.248Z,14.42
2017-11-06T14:55:54.641Z,14.3
2017-11-06T14:57:04.655Z,13.94
2017-11-06T14:58:13.667Z,13.8
2017-11-06T14:59:24.018Z,13.59
2017-11-06T15:00:33.366Z,13.63
2017-11-06T15:01:43.594Z,13.63
2017-11-06T15:02:52.952Z,13.63
2017-11-06T15:04:02.990Z,13.55
2017-11-06T15:05:12.675Z,13.48
2017-11-06T15:06:22.013Z,13.43
2017-11-06T15:07:32.044Z,13.27
2017-11-06T15:08:41.725Z,13.04
2017-11-06T15:09:51.744Z,12.81
2017-11-06T15:11:01.440Z,12.7
2017-11-06T15:12:11.505Z,12.62
2017-11-06T15:13:21.528Z,12.56
2017-11-06T15:14:31.881Z,12.49
2017-11-06T15:15:42.245Z,12.48
2017-11-06T15:16:52.275Z,12.46
2017-11-06T15:18:02.627Z,12.31
2017-11-06T15:19:12.643Z,12.33
2017-11-06T15:20:22.994Z,12.34
2017-11-06T15:21:33.406Z,12.29
2017-11-06T15:22:43.107Z,12.29
2017-11-06T15:23:52.213Z,12.26